createdAt,value
2022-09-04T00:04:45.616Z,68.86
2022-09-04T00:10:01.835Z,70.05
2022-09-04T00:15:10.507Z,70.27
2022-09-04T00:20:34.184Z,69.97
2022-09-04T00:25:44.620Z,68.90
2022-09-04T00:30:54.263Z,68.47
2022-09-04T00:36:04.091Z,68.94
2022-09-04T00:41:16.449Z,69.16
2022-09-04T00:46:38.159Z,69.20
2022-09-04T00:51:53.277Z,68.97
2022-09-04T00:57:45.233Z,68.94
2022-09-04T01:03:04.532Z,69.14
2022-09-04T01:08:21.436Z,69.91
2022-09-04T01:13:33.920Z,70.09
2022-09-04T01:18:46.721Z,70.12
2022-09-04T01:24:19.665Z,69.78
2022-09-04T01:29:50.108Z,69.65
2022-09-04T01:35:03.475Z,69.58
2022-09-04T01:40:23.321Z,69.90
2022-09-04T01:46:20.099Z,69.95
2022-09-04T01:51:34.168Z,70.20
2022-09-04T01:56:45.294Z,69.72
2022-09-04T02:01:54.801Z,70.24
2022-09-04T02:07:10.410Z,71.09
2022-09-04T02:12:24.766Z,70.91
2022-09-04T02:17:39.455Z,70.99
2022-09-04T02:22:55.746Z,71.22
2022-09-04T02:28:11.291Z,70.98
2022-09-04T02:33:23.691Z,70.93
2022-09-04T02:38:33.565Z,70.64
2022-09-04T02:43:47.660Z,69.92
2022-09-04T02:49:07.874Z,70.83
2022-09-04T02:54:22.445Z,70.54
2022-09-04T02:59:36.215Z,70.96
2022-09-04T03:04:50.047Z,71.36
2022-09-04T03:10:02.367Z,70.60
2022-09-04T03:15:15.491Z,70.73
2022-09-04T03:20:23.201Z,71.51
2022-09-04T03:26:00.675Z,70.68
2022-09-04T03:31:14.656Z,71.20
2022-09-04T03:36:26.104Z,72.08
2022-09-04T03:41:38.858Z,71.43
2022-09-04T03:46:57.970Z,71.30
2022-09-04T03:52:09.741Z,70.81
2022-09-04T03:57:24.807Z,70.91
2022-09-04T04:02:38.327Z,70.90
2022-09-04T04:07:51.389Z,71.46
2022-09-04T04:13:14.592Z,71.30
2022-09-04T04:18:35.896Z,71.11
2022-09-04T04:24:07.234Z,71.27
2022-09-04T04:29:34.786Z,71.08
2022-09-04T04:34:57.047Z,71.61
2022-09-04T04:40:08.060Z,70.67
2022-09-04T04:45:41.537Z,70.44
2022-09-04T04:50:51.777Z,70.71
2022-09-04T04:55:59.031Z,71.04
2022-09-04T05:01:16.070Z,70.79
2022-09-04T05:06:26.142Z,70.19
2022-09-04T05:11:38.717Z,69.45
2022-09-04T05:16:56.007Z,68.87
2022-09-04T05:22:09.272Z,68.70
2022-09-04T05:27:50.983Z,69.21
2022-09-04T05:32:59.844Z,68.61
2022-09-04T05:38:10.020Z,67.72
2022-09-04T05:43:25.620Z,66.72
2022-09-04T05:48:39.199Z,65.43
2022-09-04T05:54:14.752Z,66.06
2022-09-04T05:59:51.573Z,64.26
2022-09-04T06:05:07.184Z,62.25
2022-09-04T06:10:19.012Z,60.77
2022-09-04T06:15:36.421Z,58.63
2022-09-04T06:21:03.586Z,57.38
2022-09-04T06:26:21.199Z,57.50
2022-09-04T06:31:54.954Z,56.03
2022-09-04T06:37:08.307Z,57.75
2022-09-04T06:42:27.043Z,57.33
2022-09-04T06:47:42.678Z,56.94
2022-09-04T06:53:04.169Z,53.96
2022-09-04T06:58:21.953Z,54.33
2022-09-04T07:03:39.176Z,52.95
2022-09-04T07:08:58.825Z,52.79
2022-09-04T07:14:17.893Z,53.83
2022-09-04T07:19:44.602Z,52.58
2022-09-04T07:25:13.808Z,53.85
2022-09-04T07:30:20.083Z,51.28
2022-09-04T07:35:36.353Z,54.09
2022-09-04T07:40:46.028Z,54.00
2022-09-04T07:45:58.659Z,55.00
2022-09-04T07:51:10.664Z,55.41
2022-09-04T07:56:20.052Z,53.55
2022-09-04T08:01:49.402Z,57.42
2022-09-04T08:06:58.824Z,57.17
2022-09-04T08:12:18.771Z,55.22
2022-09-04T08:17:43.238Z,53.73
2022-09-04T08:22:58.105Z,53.41
2022-09-04T08:28:17.595Z,56.36
2022-09-04T08:33:32.567Z,55.75
2022-09-04T08:38:46.734Z,58.80
2022-09-04T08:44:41.006Z,57.09
2022-09-04T08:50:18.708Z,57.60
2022-09-04T08:55:37.707Z,55.89
2022-09-04T09:01:00.227Z,52.52
2022-09-04T09:06:35.240Z,49.93
2022-09-04T09:12:17.812Z,50.01
2022-09-04T09:17:37.357Z,48.76
2022-09-04T09:23:14.856Z,49.03
2022-09-04T09:28:54.604Z,47.16
2022-09-04T09:34:21.128Z,46.83
2022-09-04T09:39:58.008Z,47.36
2022-09-04T09:45:42.014Z,48.13
2022-09-04T09:51:18.840Z,48.37
2022-09-04T09:56:53.734Z,49.38
2022-09-04T10:02:33.294Z,48.63
2022-09-04T10:08:35.358Z,46.29
2022-09-04T10:14:25.026Z,45.33
2022-09-04T10:19:58.318Z,48.16
2022-09-04T10:25:32.907Z,47.90
2022-09-04T10:30:59.900Z,46.53
2022-09-04T10:36:17.055Z,45.83
2022-09-04T10:41:41.079Z,47.53
2022-09-04T10:46:56.789Z,46.58
2022-09-04T10:52:14.806Z,45.07
2022-09-04T10:57:37.380Z,48.31
2022-09-04T11:03:07.089Z,45.40
2022-09-04T11:08:39.077Z,46.60
2022-09-04T11:14:06.544Z,45.04
2022-09-04T11:19:37.823Z,45.09
2022-09-04T11:25:25.465Z,44.58
2022-09-04T11:30:48.075Z,44.47
2022-09-04T11:36:16.134Z,44.24
2022-09-04T11:41:50.888Z,42.97
2022-09-04T11:47:24.510Z,43.64
2022-09-04T11:52:40.589Z,42.35
2022-09-04T11:57:59.636Z,41.52
2022-09-04T12:03:31.987Z,40.72
2022-09-04T12:09:08.538Z,41.23
2022-09-04T12:14:22.670Z,41.11
2022-09-04T12:19:54.652Z,43.45
2022-09-04T12:25:33.311Z,40.26
2022-09-04T12:30:50.518Z,42.96
2022-09-04T12:36:38.054Z,42.58
2022-09-04T12:41:54.491Z,40.63
2022-09-04T12:47:14.138Z,44.80
2022-09-04T12:52:26.083Z,43.65
2022-09-04T12:57:39.922Z,42.92
2022-09-04T13:03:04.790Z,42.63
2022-09-04T13:08:24.535Z,41.93
2022-09-04T13:13:43.292Z,40.02
2022-09-04T13:19:00.498Z,40.55
2022-09-04T13:24:16.062Z,41.50
2022-09-04T13:29:33.307Z,41.95
2022-09-04T13:35:00.433Z,41.61
2022-09-04T13:40:22.268Z,41.69
2022-09-04T13:45:29.581Z,41.01
2022-09-04T13:50:41.140Z,41.39
2022-09-04T13:55:50.373Z,43.06
2022-09-04T14:01:00.321Z,43.02
2022-09-04T14:06:05.524Z,41.16
2022-09-04T14:11:30.213Z,41.66
2022-09-04T14:16:36.757Z,42.06
2022-09-04T14:21:55.337Z,41.83
2022-09-04T14:27:06.882Z,42.28
2022-09-04T14:32:22.750Z,41.50
2022-09-04T14:37:48.401Z,42.19
2022-09-04T14:42:58.281Z,40.42
2022-09-04T14:48:07.196Z,40.48
2022-09-04T14:53:11.508Z,41.24
2022-09-04T14:58:21.055Z,41.26
2022-09-04T15:03:29.696Z,40.50
2022-09-04T15:08:40.153Z,40.29
2022-09-04T15:13:53.809Z,40.63
2022-09-04T15:19:05.149Z,41.57
2022-09-04T15:24:16.778Z,40.87
2022-09-04T15:29:27.914Z,41.26
2022-09-04T15:34:32.776Z,42.83
2022-09-04T15:39:45.156Z,41.69
2022-09-04T15:44:49.066Z,42.59
2022-09-04T15:49:56.577Z,44.13
2022-09-04T15:55:12.157Z,43.13
2022-09-04T16:00:17.046Z,43.63
2022-09-04T16:05:28.296Z,43.88
2022-09-04T16:10:45.557Z,44.60
2022-09-04T16:15:49.319Z,44.24
2022-09-04T16:20:59.053Z,45.06
2022-09-04T16:26:11.393Z,44.59
2022-09-04T16:31:23.780Z,44.36
2022-09-04T16:36:36.175Z,45.22
2022-09-04T16:41:47.759Z,44.53
2022-09-04T16:47:03.037Z,45.17
2022-09-04T16:52:26.923Z,45.43
2022-09-04T16:57:37.728Z,45.79
2022-09-04T17:02:47.051Z,44.57
2022-09-04T17:07:56.276Z,45.83
2022-09-04T17:13:12.704Z,45.67
2022-09-04T17:18:21.938Z,45.87
2022-09-04T17:28:56.115Z,46.47
2022-09-04T17:29:34.484Z,46.84
2022-09-04T17:40:43.498Z,46.84
2022-09-04T17:40:50.563Z,47.44
2022-09-04T17:45:59.395Z,46.72
2022-09-04T17:51:05.382Z,48.83
2022-09-04T17:56:16.510Z,49.55
2022-09-04T18:01:26.436Z,50.06
2022-09-04T18:06:40.483Z,50.54
2022-09-04T18:11:59.904Z,51.15
2022-09-04T18:17:12.146Z,51.09
2022-09-04T18:22:33.455Z,51.63
2022-09-04T18:27:46.152Z,51.36
2022-09-04T18:37:12.713Z,51.50
2022-09-04T18:38:20.595Z,51.84
2022-09-04T18:50:20.219Z,52.27
2022-09-04T18:50:32.335Z,52.82
2022-09-04T18:54:32.379Z,53.42
2022-09-04T18:59:38.785Z,53.65
2022-09-04T19:04:52.225Z,54.18
2022-09-04T19:10:13.088Z,54.05
2022-09-04T19:15:51.764Z,54.17
2022-09-04T19:21:14.447Z,54.42
2022-09-04T19:26:26.510Z,54.55
2022-09-04T19:31:36.206Z,54.88
2022-09-04T19:36:47.611Z,55.79
2022-09-04T19:46:03.965Z,56.48
2022-09-04T19:47:32.256Z,56.30
2022-09-04T19:53:36.808Z,57.00
2022-09-04T19:58:09.315Z,57.76
2022-09-04T20:03:29.616Z,58.69
2022-09-04T20:08:40.986Z,58.79
2022-09-04T20:13:48.870Z,58.93
2022-09-04T20:19:03.728Z,58.90
2022-09-04T20:24:14.864Z,59.29
2022-09-04T20:29:22.918Z,59.68
2022-09-04T20:34:36.449Z,60.30
2022-09-04T20:39:48.867Z,61.22
2022-09-04T20:48:25.737Z,62.04
2022-09-04T20:53:04.677Z,62.43
2022-09-04T20:56:07.965Z,62.82
2022-09-04T21:03:21.971Z,63.10
2022-09-04T21:06:52.020Z,63.94
2022-09-04T21:12:14.003Z,64.03
2022-09-04T21:17:53.552Z,64.67
2022-09-04T21:23:18.811Z,64.75
2022-09-04T21:28:53.279Z,65.31
2022-09-04T21:34:21.149Z,65.66
2022-09-04T21:39:52.255Z,66.10
2022-09-04T21:45:20.730Z,66.00
2022-09-04T21:50:54.060Z,66.44
2022-09-04T22:00:30.721Z,66.46
2022-09-04T22:02:39.910Z,66.98
2022-09-04T22:08:54.719Z,67.65
2022-09-04T22:13:38.395Z,67.74
2022-09-04T22:18:54.649Z,67.98
2022-09-04T22:24:39.662Z,68.02
2022-09-04T22:29:52.296Z,68.97
2022-09-04T22:35:24.190Z,69.49
2022-09-04T22:40:56.870Z,69.44
2022-09-04T22:46:33.537Z,69.10
2022-09-04T22:52:09.793Z,69.45
2022-09-04T22:57:20.750Z,69.35
2022-09-04T23:03:08.144Z,69.45
2022-09-04T23:13:42.180Z,70.60
2022-09-04T23:14:18.653Z,69.79
2022-09-04T23:24:00.066Z,71.17
2022-09-04T23:26:50.177Z,70.44
2022-09-04T23:31:19.742Z,71.43
2022-09-04T23:37:01.674Z,70.83
2022-09-04T23:42:27.051Z,71.16
2022-09-04T23:48:14.736Z,71.41
2022-09-04T23:53:29.653Z,71.59
2022-09-04T23:59:03.449Z,71.59
